sensor_id;sensor_type;location;lat;lon;timestamp;pressure;altitude;pressure_sealevel;temperature;humidity
11525;BME280;5819;49.648;8.330;2023-03-03T00:01:01;100790.38;;;3.08;68.14
11525;BME280;5819;49.648;8.330;2023-03-03T00:03:30;100795.56;;;3.00;68.44
11525;BME280;5819;49.648;8.330;2023-03-03T00:05:58;100794.75;;;2.91;69.74
11525;BME280;5819;49.648;8.330;2023-03-03T00:08:26;100797.31;;;2.91;69.51
11525;BME280;5819;49.648;8.330;2023-03-03T00:10:54;100805.84;;;2.94;69.61
11525;BME280;5819;49.648;8.330;2023-03-03T00:13:23;100800.69;;;2.97;69.10
11525;BME280;5819;49.648;8.330;2023-03-03T00:15:52;100803.25;;;2.97;69.63
11525;BME280;5819;49.648;8.330;2023-03-03T00:18:25;100801.56;;;2.99;69.90
11525;BME280;5819;49.648;8.330;2023-03-03T00:20:58;100808.41;;;2.99;70.00
11525;BME280;5819;49.648;8.330;2023-03-03T00:23:34;100805.84;;;2.94;70.20
11525;BME280;5819;49.648;8.330;2023-03-03T00:26:15;100805.88;;;2.87;70.34
11525;BME280;5819;49.648;8.330;2023-03-03T00:28:48;100803.34;;;2.77;71.01
11525;BME280;5819;49.648;8.330;2023-03-03T00:31:19;100805.97;;;2.64;71.57
11525;BME280;5819;49.648;8.330;2023-03-03T00:33:50;100808.50;;;2.73;71.08
11525;BME280;5819;49.648;8.330;2023-03-03T00:36:35;100812.75;;;2.83;71.15
11525;BME280;5819;49.648;8.330;2023-03-03T00:39:20;100811.91;;;2.79;71.11
11525;BME280;5819;49.648;8.330;2023-03-03T00:41:50;100819.59;;;2.82;71.57
11525;BME280;5819;49.648;8.330;2023-03-03T00:44:40;100810.22;;;2.71;72.24
11525;BME280;5819;49.648;8.330;2023-03-03T00:47:27;100814.53;;;2.60;72.51
11525;BME280;5819;49.648;8.330;2023-03-03T00:50:25;100818.81;;;2.68;72.05
11525;BME280;5819;49.648;8.330;2023-03-03T00:53:06;100815.38;;;2.71;71.83
11525;BME280;5819;49.648;8.330;2023-03-03T00:55:34;100823.09;;;2.63;72.51
11525;BME280;5819;49.648;8.330;2023-03-03T00:58:03;100830.81;;;2.56;73.05
11525;BME280;5819;49.648;8.330;2023-03-03T01:00:36;100826.53;;;2.59;72.76
11525;BME280;5819;49.648;8.330;2023-03-03T01:03:07;100831.69;;;2.52;73.28
11525;BME280;5819;49.648;8.330;2023-03-03T01:05:36;100830.81;;;2.45;73.67
11525;BME280;5819;49.648;8.330;2023-03-03T01:08:06;100836.84;;;2.49;73.81
11525;BME280;5819;49.648;8.330;2023-03-03T01:10:36;100837.66;;;2.49;73.68
11525;BME280;5819;49.648;8.330;2023-03-03T01:13:06;100834.22;;;2.61;73.75
11525;BME280;5819;49.648;8.330;2023-03-03T01:15:35;100831.66;;;2.55;73.70
11525;BME280;5819;49.648;8.330;2023-03-03T01:18:04;100832.53;;;2.51;73.22
11525;BME280;5819;49.648;8.330;2023-03-03T01:20:32;100841.94;;;2.53;73.48
11525;BME280;5819;49.648;8.330;2023-03-03T01:23:01;100838.53;;;2.50;73.76
11525;BME280;5819;49.648;8.330;2023-03-03T01:25:31;100835.13;;;2.43;73.69
11525;BME280;5819;49.648;8.330;2023-03-03T01:27:59;100835.13;;;2.43;74.05
11525;BME280;5819;49.648;8.330;2023-03-03T01:30:27;100837.72;;;2.32;74.10
11525;BME280;5819;49.648;8.330;2023-03-03T01:32:55;100834.28;;;2.26;74.34
11525;BME280;5819;49.648;8.330;2023-03-03T01:35:24;100829.16;;;2.20;74.20
11525;BME280;5819;49.648;8.330;2023-03-03T01:37:51;100832.56;;;2.34;74.41
11525;BME280;5819;49.648;8.330;2023-03-03T01:40:22;100828.28;;;2.36;74.75
11525;BME280;5819;49.648;8.330;2023-03-03T01:42:51;100827.44;;;2.28;75.41
11525;BME280;5819;49.648;8.330;2023-03-03T01:45:21;100827.44;;;2.22;75.23
11525;BME280;5819;49.648;8.330;2023-03-03T01:47:59;100819.75;;;2.02;76.08
11525;BME280;5819;49.648;8.330;2023-03-03T01:50:41;100813.75;;;2.06;76.37
11525;BME280;5819;49.648;8.330;2023-03-03T01:53:16;100827.44;;;2.07;76.85
11525;BME280;5819;49.648;8.330;2023-03-03T01:55:48;100822.31;;;2.14;77.36
11525;BME280;5819;49.648;8.330;2023-03-03T01:58:21;100824.06;;;1.93;77.73
11525;BME280;5819;49.648;8.330;2023-03-03T02:00:55;100824.03;;;1.83;78.11
11525;BME280;5819;49.648;8.330;2023-03-03T02:03:24;100831.75;;;1.93;78.03
11525;BME280;5819;49.648;8.330;2023-03-03T02:05:55;100829.16;;;1.89;77.87
11525;BME280;5819;49.648;8.330;2023-03-03T02:08:29;100822.34;;;2.04;78.02
11525;BME280;5819;49.648;8.330;2023-03-03T02:10:58;100819.75;;;1.95;77.91
11525;BME280;5819;49.648;8.330;2023-03-03T02:13:27;100820.59;;;1.94;78.55
11525;BME280;5819;49.648;8.330;2023-03-03T02:15:55;100823.19;;;1.87;78.53
11525;BME280;5819;49.648;8.330;2023-03-03T02:18:25;100823.19;;;1.84;79.42
11525;BME280;5819;49.648;8.330;2023-03-03T02:20:57;100825.72;;;1.77;79.63
11525;BME280;5819;49.648;8.330;2023-03-03T02:23:34;100817.19;;;1.73;80.45
11525;BME280;5819;49.648;8.330;2023-03-03T02:26:08;100825.72;;;1.78;80.79
11525;BME280;5819;49.648;8.330;2023-03-03T02:28:39;100818.06;;;1.80;80.40
11525;BME280;5819;49.648;8.330;2023-03-03T02:31:11;100814.63;;;1.73;80.46
11525;BME280;5819;49.648;8.330;2023-03-03T02:33:41;100824.03;;;1.76;80.32
11525;BME280;5819;49.648;8.330;2023-03-03T02:36:11;100818.06;;;1.83;80.58
11525;BME280;5819;49.648;8.330;2023-03-03T02:38:43;100824.03;;;1.74;81.64
11525;BME280;5819;49.648;8.330;2023-03-03T02:41:20;100828.31;;;1.72;81.76
11525;BME280;5819;49.648;8.330;2023-03-03T02:43:57;100827.41;;;1.69;81.11
11525;BME280;5819;49.648;8.330;2023-03-03T02:46:27;100821.44;;;1.70;81.70
11525;BME280;5819;49.648;8.330;2023-03-03T02:48:59;100817.19;;;1.79;81.93
11525;BME280;5819;49.648;8.330;2023-03-03T02:51:27;100821.44;;;1.62;82.31
11525;BME280;5819;49.648;8.330;2023-03-03T02:53:56;100821.41;;;1.53;82.20
11525;BME280;5819;49.648;8.330;2023-03-03T02:56:27;100823.13;;;1.57;82.05
11525;BME280;5819;49.648;8.330;2023-03-03T02:58:56;100823.16;;;1.65;81.86
11525;BME280;5819;49.648;8.330;2023-03-03T03:01:24;100822.31;;;1.60;82.41
11525;BME280;5819;49.648;8.330;2023-03-03T03:03:53;100822.28;;;1.61;82.07
11525;BME280;5819;49.648;8.330;2023-03-03T03:06:22;100822.31;;;1.60;81.88
11525;BME280;5819;49.648;8.330;2023-03-03T03:08:50;100814.59;;;1.54;81.55
11525;BME280;5819;49.648;8.330;2023-03-03T03:11:18;100818.00;;;1.42;82.63
11525;BME280;5819;49.648;8.330;2023-03-03T03:13:48;100823.97;;;1.32;83.58
11525;BME280;5819;49.648;8.330;2023-03-03T03:16:15;100831.63;;;1.29;83.66
11525;BME280;5819;49.648;8.330;2023-03-03T03:18:44;100832.50;;;1.35;84.85
11525;BME280;5819;49.648;8.330;2023-03-03T03:21:13;100831.63;;;1.33;84.35
11525;BME280;5819;49.648;8.330;2023-03-03T03:23:41;100829.91;;;1.32;84.67
11525;BME280;5819;49.648;8.330;2023-03-03T03:26:10;100835.84;;;1.21;85.61
11525;BME280;5819;49.648;8.330;2023-03-03T03:28:39;100832.47;;;1.20;84.91
11525;BME280;5819;49.648;8.330;2023-03-03T03:31:08;100837.56;;;1.14;85.62
11525;BME280;5819;49.648;8.330;2023-03-03T03:33:36;100834.16;;;1.20;85.61
11525;BME280;5819;49.648;8.330;2023-03-03T03:36:06;100831.59;;;1.12;86.06
11525;BME280;5819;49.648;8.330;2023-03-03T03:38:35;100831.56;;;1.11;86.42
11525;BME280;5819;49.648;8.330;2023-03-03T03:41:06;100835.00;;;1.08;86.00
11525;BME280;5819;49.648;8.330;2023-03-03T03:43:35;100832.41;;;1.13;86.78
11525;BME280;5819;49.648;8.330;2023-03-03T03:46:03;100838.41;;;1.10;86.37
11525;BME280;5819;49.648;8.330;2023-03-03T03:48:33;100834.13;;;1.08;87.30
11525;BME280;5819;49.648;8.330;2023-03-03T03:51:04;100840.94;;;1.06;87.44
11525;BME280;5819;49.648;8.330;2023-03-03T03:53:33;100841.78;;;1.02;87.39
11525;BME280;5819;49.648;8.330;2023-03-03T03:56:01;100838.34;;;0.98;88.11
11525;BME280;5819;49.648;8.330;2023-03-03T03:58:29;100836.69;;;1.08;87.85
11525;BME280;5819;49.648;8.330;2023-03-03T04:01:03;100840.06;;;1.01;88.14
11525;BME280;5819;49.648;8.330;2023-03-03T04:03:35;100838.38;;;1.00;89.06
11525;BME280;5819;49.648;8.330;2023-03-03T04:06:07;100835.75;;;0.97;89.72
11525;BME280;5819;49.648;8.330;2023-03-03T04:08:35;100831.53;;;0.96;89.65
11525;BME280;5819;49.648;8.330;2023-03-03T04:11:03;100834.91;;;0.94;89.92
11525;BME280;5819;49.648;8.330;2023-03-03T04:13:31;100839.19;;;0.94;90.52
11525;BME280;5819;49.648;8.330;2023-03-03T04:16:04;100852.00;;;1.02;90.95
11525;BME280;5819;49.648;8.330;2023-03-03T04:18:35;100850.25;;;0.93;91.40
11525;BME280;5819;49.648;8.330;2023-03-03T04:21:03;100843.44;;;0.90;91.23
11525;BME280;5819;49.648;8.330;2023-03-03T04:23:32;100843.41;;;0.89;92.09
11525;BME280;5819;49.648;8.330;2023-03-03T04:26:01;100838.34;;;0.95;92.91
11525;BME280;5819;49.648;8.330;2023-03-03T04:28:29;100847.72;;;0.98;92.84
11525;BME280;5819;49.648;8.330;2023-03-03T04:30:58;100846.03;;;0.98;93.14
11525;BME280;5819;49.648;8.330;2023-03-03T04:33:28;100843.44;;;0.97;93.80
11525;BME280;5819;49.648;8.330;2023-03-03T04:35:58;100846.03;;;0.98;94.12
11525;BME280;5819;49.648;8.330;2023-03-03T04:38:26;100845.16;;;0.94;95.35
11525;BME280;5819;49.648;8.330;2023-03-03T04:40:55;100848.56;;;0.90;95.74
11525;BME280;5819;49.648;8.330;2023-03-03T04:43:25;100856.25;;;0.93;95.88
11525;BME280;5819;49.648;8.330;2023-03-03T04:45:54;100855.41;;;1.01;95.53
11525;BME280;5819;49.648;8.330;2023-03-03T04:48:22;100856.28;;;1.03;96.32
11525;BME280;5819;49.648;8.330;2023-03-03T04:50:50;100850.31;;;0.99;96.54
11525;BME280;5819;49.648;8.330;2023-03-03T04:53:20;100855.44;;;0.99;95.64
11525;BME280;5819;49.648;8.330;2023-03-03T04:55:49;100856.25;;;0.92;96.19
11525;BME280;5819;49.648;8.330;2023-03-03T04:58:17;100869.91;;;0.92;97.61
11525;BME280;5819;49.648;8.330;2023-03-03T05:00:46;100870.75;;;0.87;98.17
11525;BME280;5819;49.648;8.330;2023-03-03T05:03:14;100874.16;;;0.87;99.01
11525;BME280;5819;49.648;8.330;2023-03-03T05:05:42;100871.56;;;0.84;99.60
11525;BME280;5819;49.648;8.330;2023-03-03T05:08:10;100882.66;;;0.85;99.56
11525;BME280;5819;49.648;8.330;2023-03-03T05:10:40;100884.41;;;0.90;99.80
11525;BME280;5819;49.648;8.330;2023-03-03T05:13:07;100890.44;;;0.99;99.74
11525;BME280;5819;49.648;8.330;2023-03-03T05:15:36;100892.91;;;0.83;100.00
11525;BME280;5819;49.648;8.330;2023-03-03T05:18:04;100896.25;;;0.73;100.00
11525;BME280;5819;49.648;8.330;2023-03-03T05:20:32;100893.75;;;0.82;100.00
11525;BME280;5819;49.648;8.330;2023-03-03T05:22:59;100889.50;;;0.86;100.00
11525;BME280;5819;49.648;8.330;2023-03-03T05:25:27;100893.81;;;0.98;100.00
11525;BME280;5819;49.648;8.330;2023-03-03T05:27:57;100893.88;;;1.04;100.00
11525;BME280;5819;49.648;8.330;2023-03-03T05:30:25;100893.00;;;1.05;100.00
11525;BME280;5819;49.648;8.330;2023-03-03T05:32:53;100888.72;;;1.01;100.00
11525;BME280;5819;49.648;8.330;2023-03-03T05:35:20;100895.56;;;1.03;100.00
11525;BME280;5819;49.648;8.330;2023-03-03T05:37:48;100892.06;;;0.89;100.00
11525;BME280;5819;49.648;8.330;2023-03-03T05:40:18;100892.97;;;0.96;100.00
11525;BME280;5819;49.648;8.330;2023-03-03T05:42:46;100893.81;;;0.91;100.00
11525;BME280;5819;49.648;8.330;2023-03-03T05:45:16;100893.81;;;0.93;100.00
11525;BME280;5819;49.648;8.330;2023-03-03T05:47:46;100893.75;;;0.82;100.00
11525;BME280;5819;49.648;8.330;2023-03-03T05:50:15;100897.13;;;0.77;100.00
11525;BME280;5819;49.648;8.330;2023-03-03T05:52:43;100897.97;;;0.71;100.00
11525;BME280;5819;49.648;8.330;2023-03-03T05:55:11;100893.66;;;0.66;100.00
11525;BME280;5819;49.648;8.330;2023-03-03T05:57:39;100886.81;;;0.65;100.00
11525;BME280;5819;49.648;8.330;2023-03-03T06:00:08;100893.66;;;0.67;100.00
11525;BME280;5819;49.648;8.330;2023-03-03T06:02:41;100903.03;;;0.64;100.00
11525;BME280;5819;49.648;8.330;2023-03-03T06:05:09;100904.72;;;0.60;100.00
11525;BME280;5819;49.648;8.330;2023-03-03T06:07:37;100898.69;;;0.52;100.00
11525;BME280;5819;49.648;8.330;2023-03-03T06:10:06;100903.91;;;0.64;100.00
11525;BME280;5819;49.648;8.330;2023-03-03T06:12:36;100906.47;;;0.67;100.00
11525;BME280;5819;49.648;8.330;2023-03-03T06:15:05;100905.53;;;0.61;100.00
11525;BME280;5819;49.648;8.330;2023-03-03T06:17:33;100915.75;;;0.52;100.00
11525;BME280;5819;49.648;8.330;2023-03-03T06:20:03;100922.56;;;0.51;100.00
11525;BME280;5819;49.648;8.330;2023-03-03T06:22:32;100926.00;;;0.55;100.00
11525;BME280;5819;49.648;8.330;2023-03-03T06:24:59;100932.88;;;0.63;100.00
11525;BME280;5819;49.648;8.330;2023-03-03T06:27:27;100938.75;;;0.50;100.00
11525;BME280;5819;49.648;8.330;2023-03-03T06:29:55;100936.31;;;0.68;100.00
11525;BME280;5819;49.648;8.330;2023-03-03T06:32:23;100943.06;;;0.57;100.00
11525;BME280;5819;49.648;8.330;2023-03-03T06:34:51;100943.06;;;0.57;100.00
11525;BME280;5819;49.648;8.330;2023-03-03T06:37:20;100949.88;;;0.55;100.00
11525;BME280;5819;49.648;8.330;2023-03-03T06:39:49;100950.88;;;0.74;100.00
11525;BME280;5819;49.648;8.330;2023-03-03T06:42:19;100964.47;;;0.68;100.00
11525;BME280;5819;49.648;8.330;2023-03-03T06:44:47;100961.09;;;0.68;100.00
11525;BME280;5819;49.648;8.330;2023-03-03T06:47:15;100961.09;;;0.72;100.00
11525;BME280;5819;49.648;8.330;2023-03-03T06:49:43;100970.53;;;0.81;100.00
11525;BME280;5819;49.648;8.330;2023-03-03T06:52:13;100962.09;;;0.94;100.00
11525;BME280;5819;49.648;8.330;2023-03-03T06:54:46;100959.59;;;1.05;100.00
11525;BME280;5819;49.648;8.330;2023-03-03T06:57:19;100962.97;;;1.01;100.00
11525;BME280;5819;49.648;8.330;2023-03-03T06:59:52;100974.06;;;0.95;100.00
11525;BME280;5819;49.648;8.330;2023-03-03T07:02:21;100974.13;;;1.06;100.00
11525;BME280;5819;49.648;8.330;2023-03-03T07:04:49;100972.50;;;1.18;100.00
11525;BME280;5819;49.648;8.330;2023-03-03T07:07:19;100976.75;;;1.18;100.00
11525;BME280;5819;49.648;8.330;2023-03-03T07:09:50;100979.44;;;1.40;100.00
11525;BME280;5819;49.648;8.330;2023-03-03T07:12:20;100981.16;;;1.40;100.00
11525;BME280;5819;49.648;8.330;2023-03-03T07:14:51;100976.03;;;1.45;100.00
11525;BME280;5819;49.648;8.330;2023-03-03T07:17:23;100988.88;;;1.48;100.00
11525;BME280;5819;49.648;8.330;2023-03-03T07:19:52;100996.59;;;1.57;100.00
11525;BME280;5819;49.648;8.330;2023-03-03T07:22:23;100985.56;;;1.71;100.00
11525;BME280;5819;49.648;8.330;2023-03-03T07:24:56;101000.03;;;1.57;100.00
11525;BME280;5819;49.648;8.330;2023-03-03T07:27:27;100986.41;;;1.70;100.00
11525;BME280;5819;49.648;8.330;2023-03-03T07:30:15;100987.28;;;1.72;100.00
11525;BME280;5819;49.648;8.330;2023-03-03T07:32:47;101001.00;;;1.83;100.00
11525;BME280;5819;49.648;8.330;2023-03-03T07:35:28;100997.53;;;1.75;100.00
11525;BME280;5819;49.648;8.330;2023-03-03T07:37:56;101004.44;;;1.90;100.00
11525;BME280;5819;49.648;8.330;2023-03-03T07:40:34;101006.16;;;1.93;100.00
11525;BME280;5819;49.648;8.330;2023-03-03T07:43:21;101006.19;;;2.03;100.00
11525;BME280;5819;49.648;8.330;2023-03-03T07:45:54;101009.63;;;2.08;100.00
11525;BME280;5819;49.648;8.330;2023-03-03T07:48:30;101016.44;;;2.06;100.00
11525;BME280;5819;49.648;8.330;2023-03-03T07:51:04;101024.16;;;2.08;100.00
11525;BME280;5819;49.648;8.330;2023-03-03T07:53:33;101025.03;;;2.19;100.00
11525;BME280;5819;49.648;8.330;2023-03-03T07:56:19;101022.47;;;2.23;100.00
11525;BME280;5819;49.648;8.330;2023-03-03T07:58:49;101026.78;;;2.24;100.00
11525;BME280;5819;49.648;8.330;2023-03-03T08:01:39;101030.22;;;2.49;100.00
11525;BME280;5819;49.648;8.330;2023-03-03T08:04:16;101045.63;;;2.43;100.00
11525;BME280;5819;49.648;8.330;2023-03-03T08:06:49;101049.91;;;2.44;100.00
11525;BME280;5819;49.648;8.330;2023-03-03T08:09:38;101048.19;;;2.61;100.00
11525;BME280;5819;49.648;8.330;2023-03-03T08:15:27;101056.75;;;2.65;99.32
11525;BME280;5819;49.648;8.330;2023-03-03T08:17:59;101055.94;;;2.75;97.74
11525;BME280;5819;49.648;8.330;2023-03-03T08:20:49;101055.91;;;2.70;98.65
11525;BME280;5819;49.648;8.330;2023-03-03T08:23:18;101051.66;;;2.78;99.10
11525;BME280;5819;49.648;8.330;2023-03-03T08:25:48;101051.63;;;2.74;99.20
11525;BME280;5819;49.648;8.330;2023-03-03T08:28:18;101058.50;;;2.84;98.72
11525;BME280;5819;49.648;8.330;2023-03-03T08:30:47;101055.91;;;3.10;97.91
11525;BME280;5819;49.648;8.330;2023-03-03T08:33:16;101057.66;;;2.88;98.05
11525;BME280;5819;49.648;8.330;2023-03-03T08:35:45;101063.63;;;2.98;98.98
11525;BME280;5819;49.648;8.330;2023-03-03T08:38:16;101060.22;;;3.06;99.16
11525;BME280;5819;49.648;8.330;2023-03-03T08:40:44;101052.50;;;3.17;97.79
11525;BME280;5819;49.648;8.330;2023-03-03T08:43:14;101053.31;;;3.37;96.93
11525;BME280;5819;49.648;8.330;2023-03-03T08:45:45;101052.47;;;3.35;97.51
11525;BME280;5819;49.648;8.330;2023-03-03T08:48:14;101054.88;;;3.93;96.74
11525;BME280;5819;49.648;8.330;2023-03-03T08:50:42;101061.72;;;4.00;93.59
11525;BME280;5819;49.648;8.330;2023-03-03T08:53:11;101060.94;;;3.73;94.55
11525;BME280;5819;49.648;8.330;2023-03-03T08:55:40;101062.69;;;3.68;95.22
11525;BME280;5819;49.648;8.330;2023-03-03T08:58:08;101064.34;;;3.83;93.32
11525;BME280;5819;49.648;8.330;2023-03-03T09:00:36;101058.47;;;3.22;95.42
11525;BME280;5819;49.648;8.330;2023-03-03T09:03:06;101057.53;;;3.68;95.57
11525;BME280;5819;49.648;8.330;2023-03-03T09:05:36;101060.00;;;3.94;94.15
11525;BME280;5819;49.648;8.330;2023-03-03T09:08:05;101062.66;;;3.81;94.90
11525;BME280;5819;49.648;8.330;2023-03-03T09:10:33;101064.31;;;3.88;94.08
11525;BME280;5819;49.648;8.330;2023-03-03T09:13:09;101066.63;;;4.45;92.32
11525;BME280;5819;49.648;8.330;2023-03-03T09:15:39;101064.16;;;4.29;91.11
11525;BME280;5819;49.648;8.330;2023-03-03T09:18:14;101064.97;;;4.35;90.38
11525;BME280;5819;49.648;8.330;2023-03-03T09:20:44;101060.75;;;4.17;90.01
11525;BME280;5819;49.648;8.330;2023-03-03T09:23:27;101056.47;;;4.13;92.22
11525;BME280;5819;49.648;8.330;2023-03-03T09:25:55;101058.91;;;4.42;90.80
11525;BME280;5819;49.648;8.330;2023-03-03T09:28:25;101058.00;;;4.46;90.23
11525;BME280;5819;49.648;8.330;2023-03-03T09:30:55;101059.75;;;4.44;90.54
11525;BME280;5819;49.648;8.330;2023-03-03T09:33:27;101059.75;;;4.43;90.01
11525;BME280;5819;49.648;8.330;2023-03-03T09:36:02;101062.38;;;4.41;89.32
11525;BME280;5819;49.648;8.330;2023-03-03T09:38:32;101069.16;;;4.53;87.99
11525;BME280;5819;49.648;8.330;2023-03-03T09:44:11;101060.50;;;4.63;89.16
11525;BME280;5819;49.648;8.330;2023-03-03T09:46:54;101056.97;;;4.75;89.68
11525;BME280;5819;49.648;8.330;2023-03-03T09:49:30;101067.19;;;4.87;88.13
11525;BME280;5819;49.648;8.330;2023-03-03T09:52:06;101061.09;;;4.94;87.77
11525;BME280;5819;49.648;8.330;2023-03-03T09:54:49;101064.00;;;5.53;86.62
11525;BME280;5819;49.648;8.330;2023-03-03T09:57:24;101061.44;;;5.50;84.78
11525;BME280;5819;49.648;8.330;2023-03-03T10:00:15;101068.63;;;5.19;86.49
11525;BME280;5819;49.648;8.330;2023-03-03T10:02:51;101061.31;;;5.64;85.05
11525;BME280;5819;49.648;8.330;2023-03-03T10:05:30;101066.59;;;5.53;84.96
11525;BME280;5819;49.648;8.330;2023-03-03T10:08:28;101065.75;;;5.51;84.91
11525;BME280;5819;49.648;8.330;2023-03-03T10:11:08;101070.00;;;5.55;85.05
11525;BME280;5819;49.648;8.330;2023-03-03T10:13:57;101070.59;;;5.80;83.79
11525;BME280;5819;49.648;8.330;2023-03-03T10:16:37;101074.22;;;5.64;83.51
11525;BME280;5819;49.648;8.330;2023-03-03T10:19:23;101068.81;;;5.87;82.99
11525;BME280;5819;49.648;8.330;2023-03-03T10:22:02;101068.63;;;6.03;83.19
11525;BME280;5819;49.648;8.330;2023-03-03T10:24:42;101057.22;;;6.21;81.26
11525;BME280;5819;49.648;8.330;2023-03-03T10:27:27;101053.66;;;6.30;80.95
11525;BME280;5819;49.648;8.330;2023-03-03T10:30:03;101048.91;;;6.59;80.12
11525;BME280;5819;49.648;8.330;2023-03-03T10:32:48;101050.97;;;6.36;80.71
11525;BME280;5819;49.648;8.330;2023-03-03T10:35:54;101048.66;;;6.76;80.23
11525;BME280;5819;49.648;8.330;2023-03-03T10:38:59;101057.38;;;6.69;77.19
11525;BME280;5819;49.648;8.330;2023-03-03T10:41:41;101063.78;;;6.43;80.22
11525;BME280;5819;49.648;8.330;2023-03-03T10:44:29;101065.72;;;6.28;79.02
11525;BME280;5819;49.648;8.330;2023-03-03T10:47:16;101064.50;;;6.53;78.77
11525;BME280;5819;49.648;8.330;2023-03-03T10:49:55;101053.28;;;6.54;78.02
11525;BME280;5819;49.648;8.330;2023-03-03T10:52:32;101061.78;;;6.62;77.95
11525;BME280;5819;49.648;8.330;2023-03-03T10:55:24;101057.63;;;6.52;78.74
11525;BME280;5819;49.648;8.330;2023-03-03T10:58:16;101063.44;;;6.66;78.20
11525;BME280;5819;49.648;8.330;2023-03-03T11:00:50;101060.59;;;6.84;77.15
11525;BME280;5819;49.648;8.330;2023-03-03T11:03:54;101054.53;;;6.85;76.37
11525;BME280;5819;49.648;8.330;2023-03-03T11:06:39;101045.16;;;6.78;77.08
11525;BME280;5819;49.648;8.330;2023-03-03T11:09:27;101047.44;;;6.98;77.75
11525;BME280;5819;49.648;8.330;2023-03-03T11:12:05;101043.88;;;7.05;77.12
11525;BME280;5819;49.648;8.330;2023-03-03T11:14:42;101055.59;;;7.26;75.24
11525;BME280;5819;49.648;8.330;2023-03-03T11:17:19;101046.13;;;7.23;75.79
11525;BME280;5819;49.648;8.330;2023-03-03T11:20:00;101044.88;;;7.44;74.89
11525;BME280;5819;49.648;8.330;2023-03-03T11:22:40;101039.84;;;7.38;75.08
11525;BME280;5819;49.648;8.330;2023-03-03T11:25:23;101048.94;;;7.11;74.78
11525;BME280;5819;49.648;8.330;2023-03-03T11:28:21;101051.50;;;7.11;74.55
11525;BME280;5819;49.648;8.330;2023-03-03T11:31:03;101047.91;;;7.21;74.75
11525;BME280;5819;49.648;8.330;2023-03-03T11:33:43;101043.16;;;7.44;74.15
11525;BME280;5819;49.648;8.330;2023-03-03T11:36:19;101038.06;;;7.38;74.53
11525;BME280;5819;49.648;8.330;2023-03-03T11:38:56;101046.28;;;7.14;74.70
11525;BME280;5819;49.648;8.330;2023-03-03T11:41:35;101040.78;;;7.32;74.90
11525;BME280;5819;49.648;8.330;2023-03-03T11:44:12;101027.41;;;7.57;73.71
11525;BME280;5819;49.648;8.330;2023-03-03T11:46:46;101039.28;;;7.19;74.72
11525;BME280;5819;49.648;8.330;2023-03-03T11:49:20;101032.50;;;7.60;72.82
11525;BME280;5819;49.648;8.330;2023-03-03T11:52:02;101030.06;;;7.53;72.72
11525;BME280;5819;49.648;8.330;2023-03-03T11:54:47;101028.16;;;7.62;72.46
11525;BME280;5819;49.648;8.330;2023-03-03T11:57:21;101023.59;;;7.74;72.91
11525;BME280;5819;49.648;8.330;2023-03-03T11:59:59;101017.63;;;8.12;72.14
11525;BME280;5819;49.648;8.330;2023-03-03T12:02:49;101015.44;;;8.34;69.94
11525;BME280;5819;49.648;8.330;2023-03-03T12:05:33;101000.56;;;8.42;71.03
11525;BME280;5819;49.648;8.330;2023-03-03T12:08:13;100998.31;;;8.64;70.76
11525;BME280;5819;49.648;8.330;2023-03-03T12:10:48;100995.59;;;8.68;69.45
11525;BME280;5819;49.648;8.330;2023-03-03T12:13:22;100992.91;;;8.73;67.70
11525;BME280;5819;49.648;8.330;2023-03-03T12:16:00;100992.09;;;9.05;68.01
11525;BME280;5819;49.648;8.330;2023-03-03T12:18:45;100988.88;;;8.95;67.72
11525;BME280;5819;49.648;8.330;2023-03-03T12:21:33;100977.91;;;9.18;67.38
11525;BME280;5819;49.648;8.330;2023-03-03T12:24:19;100973.50;;;9.52;66.09
11525;BME280;5819;49.648;8.330;2023-03-03T12:26:59;100974.19;;;9.59;67.25
11525;BME280;5819;49.648;8.330;2023-03-03T12:29:40;100975.81;;;9.63;66.04
11525;BME280;5819;49.648;8.330;2023-03-03T12:32:25;100960.97;;;9.66;63.46
11525;BME280;5819;49.648;8.330;2023-03-03T12:34:57;100959.41;;;9.61;64.17
11525;BME280;5819;49.648;8.330;2023-03-03T12:37:43;100960.19;;;9.92;63.56
11525;BME280;5819;49.648;8.330;2023-03-03T12:40:18;100949.97;;;10.15;62.53
11525;BME280;5819;49.648;8.330;2023-03-03T12:42:59;100947.00;;;9.70;63.40
11525;BME280;5819;49.648;8.330;2023-03-03T12:45:37;100947.28;;;9.60;62.85
11525;BME280;5819;49.648;8.330;2023-03-03T12:48:15;100941.84;;;9.69;62.45
11525;BME280;5819;49.648;8.330;2023-03-03T12:50:52;100939.75;;;9.81;61.98
11525;BME280;5819;49.648;8.330;2023-03-03T12:53:47;100937.44;;;9.71;63.49
11525;BME280;5819;49.648;8.330;2023-03-03T12:56:25;100936.53;;;9.73;62.29
11525;BME280;5819;49.648;8.330;2023-03-03T12:59:02;100931.09;;;9.52;62.71
11525;BME280;5819;49.648;8.330;2023-03-03T13:01:40;100931.91;;;9.54;63.65
11525;BME280;5819;49.648;8.330;2023-03-03T13:04:21;100927.59;;;9.82;62.98
11525;BME280;5819;49.648;8.330;2023-03-03T13:06:58;100921.28;;;9.61;62.85
11525;BME280;5819;49.648;8.330;2023-03-03T13:09:33;100920.84;;;9.76;62.85
11525;BME280;5819;49.648;8.330;2023-03-03T13:12:17;100914.03;;;10.00;62.63
11525;BME280;5819;49.648;8.330;2023-03-03T13:14:51;100913.78;;;10.36;61.27
11525;BME280;5819;49.648;8.330;2023-03-03T13:17:25;100902.97;;;10.74;60.38
11525;BME280;5819;49.648;8.330;2023-03-03T13:19:58;100898.50;;;10.53;59.56
11525;BME280;5819;49.648;8.330;2023-03-03T13:22:36;100905.00;;;10.91;58.91
11525;BME280;5819;49.648;8.330;2023-03-03T13:25:13;100897.78;;;10.48;59.56
11525;BME280;5819;49.648;8.330;2023-03-03T13:27:46;100892.50;;;10.51;58.79
11525;BME280;5819;49.648;8.330;2023-03-03T13:30:19;100908.63;;;10.60;59.92
11525;BME280;5819;49.648;8.330;2023-03-03T13:32:52;100901.53;;;10.65;59.37
11525;BME280;5819;49.648;8.330;2023-03-03T13:35:31;100901.09;;;10.79;59.89
11525;BME280;5819;49.648;8.330;2023-03-03T13:38:01;100896.88;;;10.75;58.34
11525;BME280;5819;49.648;8.330;2023-03-03T13:40:39;100895.97;;;10.76;59.83
11525;BME280;5819;49.648;8.330;2023-03-03T13:43:16;100891.59;;;11.01;59.01
11525;BME280;5819;49.648;8.330;2023-03-03T13:45:58;100893.00;;;10.62;59.22
11525;BME280;5819;49.648;8.330;2023-03-03T13:51:33;100896.75;;;10.27;59.60